createdAt,value
2018-06-28T00:02:26.204Z,65.25
2018-06-28T00:04:55.304Z,65.05
2018-06-28T00:07:24.436Z,64.80
2018-06-28T00:09:53.577Z,63.77
2018-06-28T00:12:22.716Z,63.65
2018-06-28T00:14:51.848Z,63.90
2018-06-28T00:17:20.975Z,64.88
2018-06-28T00:19:50.108Z,65.23
2018-06-28T00:22:19.262Z,65.62
2018-06-28T00:24:48.701Z,65.73
2018-06-28T00:27:17.841Z,65.34
2018-06-28T00:29:46.979Z,65.35
2018-06-28T00:32:16.098Z,65.01
2018-06-28T00:34:45.225Z,64.44
2018-06-28T00:37:14.376Z,64.46
2018-06-28T00:39:43.489Z,64.62
2018-06-28T00:42:12.618Z,63.96
2018-06-28T00:44:41.733Z,64.30
2018-06-28T00:47:10.869Z,64.35
2018-06-28T00:49:39.986Z,64.52
2018-06-28T00:52:09.133Z,64.58
2018-06-28T00:54:38.248Z,64.99
2018-06-28T00:57:07.457Z,64.78
2018-06-28T00:59:36.568Z,64.65
2018-06-28T01:02:05.736Z,64.21
2018-06-28T01:04:34.858Z,65.17
2018-06-28T01:07:03.983Z,64.85
2018-06-28T01:09:33.107Z,64.69
2018-06-28T01:12:02.250Z,64.29
2018-06-28T01:14:31.685Z,64.65
2018-06-28T01:17:00.811Z,64.22
2018-06-28T01:19:29.937Z,63.66
2018-06-28T01:21:59.065Z,63.93
2018-06-28T01:24:28.173Z,64.09
2018-06-28T01:26:57.298Z,64.25
2018-06-28T01:29:26.414Z,63.29
2018-06-28T01:31:55.524Z,62.98
2018-06-28T01:34:24.661Z,63.44
2018-06-28T01:36:53.786Z,63.73
2018-06-28T01:39:22.957Z,63.52
2018-06-28T01:42:03.326Z,63.31
2018-06-28T01:44:32.429Z,63.00
2018-06-28T01:47:01.544Z,62.76
2018-06-28T01:49:30.674Z,62.78
2018-06-28T01:51:59.814Z,62.40
2018-06-28T01:54:28.971Z,63.22
2018-06-28T01:56:58.109Z,63.21
2018-06-28T01:59:27.253Z,63.09
2018-06-28T02:01:56.369Z,63.19
2018-06-28T02:04:25.521Z,63.52
2018-06-28T02:06:54.647Z,63.81
2018-06-28T02:09:23.786Z,63.50
2018-06-28T02:11:52.905Z,64.12
2018-06-28T02:14:22.076Z,63.44
2018-06-28T02:16:51.262Z,63.82
2018-06-28T02:19:20.425Z,63.69
2018-06-28T02:21:49.614Z,64.12
2018-06-28T02:24:18.756Z,64.37
2018-06-28T02:26:47.874Z,64.63
2018-06-28T02:29:16.992Z,63.95
2018-06-28T02:31:46.109Z,64.59
2018-06-28T02:34:15.336Z,64.70
2018-06-28T02:36:44.444Z,64.67
2018-06-28T02:39:13.555Z,64.84
2018-06-28T02:41:42.697Z,64.91
2018-06-28T02:44:11.798Z,64.49
2018-06-28T02:46:40.906Z,64.31
2018-06-28T02:49:10.033Z,64.18
2018-06-28T02:51:39.277Z,64.18
2018-06-28T02:54:08.773Z,63.96
2018-06-28T02:56:37.906Z,63.41
2018-06-28T02:59:07.063Z,64.44
2018-06-28T03:01:37.191Z,64.24
2018-06-28T03:04:06.350Z,63.57
2018-06-28T03:06:35.488Z,63.70
2018-06-28T03:09:07.175Z,63.57
2018-06-28T03:11:36.299Z,63.02
2018-06-28T03:14:05.628Z,63.80
2018-06-28T03:16:34.852Z,63.50
2018-06-28T03:19:04.047Z,63.40
2018-06-28T03:21:33.189Z,63.64
2018-06-28T03:24:02.298Z,63.18
2018-06-28T03:26:31.554Z,63.30
2018-06-28T03:29:00.908Z,63.13
2018-06-28T03:31:30.222Z,63.65
2018-06-28T03:33:59.338Z,63.89
2018-06-28T03:36:28.495Z,63.78
2018-06-28T03:38:57.610Z,63.50
2018-06-28T03:41:26.752Z,63.27
2018-06-28T03:43:55.889Z,63.70
2018-06-28T03:46:24.993Z,63.72
2018-06-28T03:48:54.132Z,63.87
2018-06-28T03:51:23.265Z,63.61
2018-06-28T03:53:52.857Z,63.71
2018-06-28T03:56:21.952Z,63.66
2018-06-28T03:58:51.072Z,64.42
2018-06-28T04:01:20.160Z,64.74
2018-06-28T04:03:49.280Z,65.03
2018-06-28T04:06:18.393Z,65.41
2018-06-28T04:08:47.510Z,65.64
2018-06-28T04:11:16.585Z,65.98
2018-06-28T04:13:45.698Z,66.19
2018-06-28T04:16:14.781Z,66.34
2018-06-28T04:18:44.085Z,66.57
2018-06-28T04:21:13.230Z,65.84
2018-06-28T04:23:42.346Z,65.52
2018-06-28T04:26:11.505Z,64.92
2018-06-28T04:28:40.625Z,65.02
2018-06-28T04:31:09.709Z,64.84
2018-06-28T04:33:38.829Z,64.18
2018-06-28T04:36:08.562Z,64.46
2018-06-28T04:38:37.664Z,64.61
2018-06-28T04:41:06.791Z,64.32
2018-06-28T04:43:35.976Z,63.33
2018-06-28T04:46:05.089Z,63.41
2018-06-28T04:48:34.192Z,62.54
2018-06-28T04:51:03.292Z,62.27
2018-06-28T04:53:32.485Z,62.03
2018-06-28T04:56:01.590Z,61.66
2018-06-28T04:58:30.673Z,62.30
2018-06-28T05:00:59.784Z,61.84
2018-06-28T05:03:28.872Z,61.16
2018-06-28T05:05:57.975Z,61.50
2018-06-28T05:08:27.161Z,61.62
2018-06-28T05:10:56.265Z,61.01
2018-06-28T05:13:25.345Z,61.82
2018-06-28T05:15:54.449Z,62.00
2018-06-28T05:18:23.537Z,61.46
2018-06-28T05:20:52.644Z,61.43
2018-06-28T05:23:21.759Z,61.44
2018-06-28T05:25:50.837Z,61.58
2018-06-28T05:28:19.921Z,62.03
2018-06-28T05:30:49.033Z,62.13
2018-06-28T05:33:18.117Z,62.19
2018-06-28T05:35:47.225Z,61.83
2018-06-28T05:38:16.554Z,62.29
2018-06-28T05:40:45.662Z,62.25
2018-06-28T05:43:14.738Z,63.02
2018-06-28T05:45:43.845Z,62.14
2018-06-28T05:48:12.929Z,61.27
2018-06-28T05:50:42.048Z,60.94
2018-06-28T05:53:11.118Z,60.59
2018-06-28T05:55:40.516Z,60.83
2018-06-28T05:58:09.602Z,59.94
2018-06-28T06:00:38.745Z,60.55
2018-06-28T06:03:08.085Z,59.91
2018-06-28T06:05:37.201Z,60.01
2018-06-28T06:08:06.310Z,58.92
2018-06-28T06:10:35.408Z,58.14
2018-06-28T06:13:04.516Z,57.63
2018-06-28T06:15:33.609Z,57.64
2018-06-28T06:18:02.708Z,57.37
2018-06-28T06:20:31.805Z,57.00
2018-06-28T06:23:00.910Z,57.77
2018-06-28T06:25:29.993Z,56.97
2018-06-28T06:27:59.096Z,56.94
2018-06-28T06:30:28.181Z,56.51
2018-06-28T06:32:57.286Z,55.40
2018-06-28T06:35:26.409Z,55.97
2018-06-28T06:37:55.504Z,56.49
2018-06-28T06:40:24.589Z,57.16
2018-06-28T06:42:53.720Z,58.12
2018-06-28T06:45:23.677Z,56.29
2018-06-28T06:47:53.718Z,56.75
2018-06-28T06:50:22.933Z,57.62
2018-06-28T06:52:52.033Z,56.06
2018-06-28T06:55:21.251Z,55.24
2018-06-28T06:57:50.737Z,55.17
2018-06-28T07:00:19.851Z,55.19
2018-06-28T07:02:49.077Z,55.16
2018-06-28T07:05:18.304Z,55.78
2018-06-28T07:07:47.513Z,54.78
2018-06-28T07:10:16.656Z,54.99
2018-06-28T07:12:45.723Z,54.67
2018-06-28T07:15:15.560Z,54.55
2018-06-28T07:17:44.672Z,55.18
2018-06-28T07:20:13.770Z,54.40
2018-06-28T07:22:42.881Z,54.88
2018-06-28T07:25:11.974Z,54.37
2018-06-28T07:27:41.052Z,54.87
2018-06-28T07:30:10.156Z,53.43
2018-06-28T07:32:39.403Z,54.03
2018-06-28T07:35:08.396Z,54.49
2018-06-28T07:37:37.461Z,53.90
2018-06-28T07:40:06.581Z,53.11
2018-06-28T07:42:35.708Z,53.53
2018-06-28T07:45:05.011Z,53.72
2018-06-28T07:47:34.102Z,53.52
2018-06-28T07:50:03.241Z,53.11
2018-06-28T07:52:32.373Z,53.01
2018-06-28T07:55:01.501Z,51.78
2018-06-28T07:57:30.592Z,51.43
2018-06-28T07:59:59.700Z,51.87
2018-06-28T08:02:29.677Z,51.24
2018-06-28T08:04:58.789Z,51.31
2018-06-28T08:07:28.033Z,51.76
2018-06-28T08:09:57.148Z,50.60
2018-06-28T08:12:26.241Z,49.40
2018-06-28T08:14:55.361Z,49.19
2018-06-28T08:17:24.461Z,49.92
2018-06-28T08:19:53.616Z,49.50
2018-06-28T08:22:22.701Z,49.07
2018-06-28T08:24:51.812Z,49.02
2018-06-28T08:27:20.933Z,48.13
2018-06-28T08:29:50.020Z,48.83
2018-06-28T08:32:19.190Z,47.27
2018-06-28T08:34:48.236Z,48.28
2018-06-28T08:37:17.341Z,47.86
2018-06-28T08:39:46.420Z,46.21
2018-06-28T08:42:15.520Z,47.06
2018-06-28T08:44:44.608Z,46.94
2018-06-28T08:47:13.757Z,47.21
2018-06-28T08:49:43.120Z,44.94
2018-06-28T08:52:12.320Z,46.60
2018-06-28T08:54:41.485Z,45.18
2018-06-28T08:57:10.765Z,45.38
2018-06-28T08:59:40.043Z,44.29
2018-06-28T09:02:09.420Z,43.70
2018-06-28T09:04:38.556Z,45.40
2018-06-28T09:07:07.844Z,44.26
2018-06-28T09:09:36.922Z,44.33
2018-06-28T09:12:06.153Z,43.78
2018-06-28T09:14:35.312Z,42.98
2018-06-28T09:17:04.508Z,42.59
2018-06-28T09:19:33.717Z,41.84
2018-06-28T09:22:02.953Z,43.07
2018-06-28T09:24:32.113Z,42.44
2018-06-28T09:27:01.477Z,41.18
2018-06-28T09:29:30.720Z,41.55
2018-06-28T09:32:00.018Z,41.18
2018-06-28T09:34:29.422Z,42.24
2018-06-28T09:36:58.749Z,41.52
2018-06-28T09:39:27.956Z,42.45
2018-06-28T09:41:57.077Z,42.57
2018-06-28T09:44:26.184Z,41.72
2018-06-28T09:46:55.261Z,42.02
2018-06-28T09:49:24.356Z,40.69
2018-06-28T09:51:53.431Z,41.98
2018-06-28T09:54:22.549Z,41.16
2018-06-28T09:56:51.637Z,40.57
2018-06-28T09:59:21.498Z,41.21
2018-06-28T10:01:50.624Z,40.38
2018-06-28T10:04:19.723Z,40.88
2018-06-28T10:06:49.862Z,39.73
2018-06-28T10:09:19.051Z,39.78
2018-06-28T10:11:48.137Z,39.57
2018-06-28T10:14:17.246Z,39.80
2018-06-28T10:16:47.143Z,40.56
2018-06-28T10:19:18.299Z,39.24
2018-06-28T10:21:48.805Z,38.33
2018-06-28T10:24:19.989Z,38.95
2018-06-28T10:26:49.077Z,38.86
2018-06-28T10:29:18.215Z,38.79
2018-06-28T10:31:48.571Z,39.30
2018-06-28T10:34:20.015Z,38.48
2018-06-28T10:36:50.389Z,39.33
2018-06-28T10:39:20.459Z,39.41
2018-06-28T10:41:50.642Z,38.70
2018-06-28T10:44:19.810Z,37.91
2018-06-28T10:46:48.889Z,38.64
2018-06-28T10:49:19.190Z,38.38
2018-06-28T10:51:49.696Z,38.69
2018-06-28T10:54:20.497Z,38.48
2018-06-28T10:56:50.481Z,37.07
2018-06-28T10:59:20.681Z,38.23
2018-06-28T11:01:51.587Z,38.70
2018-06-28T11:04:21.490Z,37.39
2018-06-28T11:06:52.204Z,37.04
2018-06-28T11:09:22.531Z,35.60
2018-06-28T11:11:51.718Z,37.06
2018-06-28T11:14:20.800Z,37.35
2018-06-28T11:16:49.902Z,35.33
2018-06-28T11:19:19.068Z,36.57
2018-06-28T11:21:48.173Z,36.64
2018-06-28T11:24:17.281Z,36.43
2018-06-28T11:26:46.397Z,35.44
2018-06-28T11:29:15.477Z,35.92
2018-06-28T11:31:44.583Z,36.11
2018-06-28T11:34:13.648Z,35.45
2018-06-28T11:36:42.744Z,36.30
2018-06-28T11:39:13.552Z,35.38
2018-06-28T11:41:43.992Z,35.40
2018-06-28T11:44:14.365Z,37.16
2018-06-28T11:46:43.545Z,35.39
2018-06-28T11:49:12.659Z,35.30
2018-06-28T11:51:42.093Z,35.92
2018-06-28T11:54:11.394Z,36.32
2018-06-28T11:56:41.797Z,36.26
2018-06-28T11:59:12.230Z,36.94
2018-06-28T12:01:42.010Z,36.67
2018-06-28T12:04:13.094Z,35.70
2018-06-28T12:06:43.265Z,35.68
2018-06-28T12:09:14.029Z,36.84
2018-06-28T12:11:44.211Z,35.95
2018-06-28T12:14:15.251Z,33.91
2018-06-28T12:16:45.880Z,33.40
2018-06-28T12:19:16.162Z,35.15
2018-06-28T12:21:46.363Z,35.50
2018-06-28T12:24:16.541Z,35.16
2018-06-28T12:26:47.224Z,34.35
2018-06-28T12:29:18.266Z,34.09
2018-06-28T12:31:48.537Z,34.63
2018-06-28T12:34:18.786Z,33.68
2018-06-28T12:36:47.972Z,33.86
2018-06-28T12:39:17.118Z,34.50
2018-06-28T12:41:46.125Z,34.92
2018-06-28T12:44:15.216Z,34.61
2018-06-28T12:47:54.537Z,34.19
2018-06-28T12:50:23.608Z,34.45
2018-06-28T12:52:57.843Z,34.09
2018-06-28T12:55:27.737Z,34.98
2018-06-28T12:57:57.935Z,35.05
2018-06-28T13:00:27.017Z,35.36
2018-06-28T13:02:56.103Z,34.48
2018-06-28T13:05:25.213Z,34.18
2018-06-28T13:07:54.300Z,34.34
2018-06-28T13:10:23.404Z,33.98
2018-06-28T13:12:52.500Z,33.51
2018-06-28T13:15:21.600Z,33.89
2018-06-28T13:17:50.688Z,33.93
2018-06-28T13:20:19.840Z,33.57
2018-06-28T13:22:48.897Z,32.74
2018-06-28T13:25:17.997Z,32.26
2018-06-28T13:27:47.084Z,33.41
2018-06-28T13:30:16.186Z,33.06
2018-06-28T13:32:45.300Z,33.04
2018-06-28T13:35:14.412Z,32.71
2018-06-28T13:37:43.508Z,33.11
2018-06-28T13:40:12.620Z,31.56
2018-06-28T13:42:41.704Z,32.72
2018-06-28T13:45:10.805Z,32.21
2018-06-28T13:47:39.889Z,33.52
2018-06-28T13:50:08.992Z,33.09
2018-06-28T13:52:38.400Z,32.26
2018-06-28T13:55:07.512Z,31.97
2018-06-28T13:57:36.639Z,32.67
2018-06-28T14:00:05.841Z,31.95
2018-06-28T14:02:34.929Z,33.12
2018-06-28T14:05:04.052Z,33.19
2018-06-28T14:07:33.140Z,33.16
2018-06-28T14:10:02.206Z,32.50
2018-06-28T14:12:31.317Z,32.33
2018-06-28T14:15:00.376Z,31.81
2018-06-28T14:17:29.545Z,31.12
2018-06-28T14:19:58.616Z,32.01
2018-06-28T14:22:27.713Z,31.39
2018-06-28T14:24:56.792Z,31.81
2018-06-28T14:27:25.896Z,31.40
2018-06-28T14:29:54.960Z,31.94
2018-06-28T14:32:24.265Z,32.05
2018-06-28T14:34:53.328Z,31.56
2018-06-28T14:37:22.425Z,30.56
2018-06-28T14:39:51.489Z,31.67
2018-06-28T14:42:20.568Z,31.40
2018-06-28T14:44:49.705Z,30.70
2018-06-28T14:47:18.812Z,30.41
2018-06-28T14:49:47.824Z,31.98
2018-06-28T14:52:16.947Z,32.49
2018-06-28T14:54:46.036Z,31.87
2018-06-28T14:57:15.113Z,32.30
2018-06-28T14:59:44.357Z,31.30
2018-06-28T15:02:13.432Z,32.39
2018-06-28T15:04:42.660Z,32.92
2018-06-28T15:07:13.253Z,32.10
2018-06-28T15:09:42.384Z,31.06
2018-06-28T15:12:11.657Z,31.51
2018-06-28T15:14:40.757Z,30.92
2018-06-28T15:17:11.746Z,31.62
2018-06-28T15:19:41.028Z,31.64
2018-06-28T15:22:10.168Z,32.08
2018-06-28T15:24:39.656Z,30.86
2018-06-28T15:27:08.732Z,30.67
2018-06-28T15:29:37.950Z,30.48
2018-06-28T15:32:07.165Z,31.10
2018-06-28T15:34:36.820Z,30.75
2018-06-28T15:37:06.448Z,30.71
2018-06-28T15:39:35.764Z,31.69
2018-06-28T15:42:04.926Z,31.26
2018-06-28T15:44:34.020Z,31.74
2018-06-28T15:47:03.096Z,31.30
2018-06-28T15:49:32.371Z,32.07
2018-06-28T15:52:01.510Z,31.88
2018-06-28T15:54:30.589Z,32.21
2018-06-28T15:56:59.657Z,31.61
2018-06-28T15:59:28.781Z,32.60
2018-06-28T16:01:57.857Z,32.35
2018-06-28T16:04:26.960Z,32.85
2018-06-28T16:06:56.032Z,32.66
2018-06-28T16:09:25.129Z,33.30
2018-06-28T16:11:54.209Z,33.03
2018-06-28T16:14:23.300Z,32.26
2018-06-28T16:16:52.392Z,32.80
2018-06-28T16:19:21.529Z,33.25
2018-06-28T16:21:50.601Z,32.82
2018-06-28T16:24:19.788Z,32.77
2018-06-28T16:26:48.877Z,33.27
2018-06-28T16:29:17.960Z,33.43
2018-06-28T16:31:47.059Z,33.80
2018-06-28T16:34:16.124Z,33.74
2018-06-28T16:36:45.213Z,33.18
2018-06-28T16:39:14.327Z,33.48
2018-06-28T16:41:43.376Z,33.98
2018-06-28T16:44:12.448Z,34.44
2018-06-28T16:46:41.628Z,34.66
2018-06-28T16:49:10.624Z,34.01
2018-06-28T16:51:39.712Z,35.69
2018-06-28T16:54:08.816Z,34.06
2018-06-28T16:56:37.921Z,35.03
2018-06-28T16:59:07.000Z,35.13
2018-06-28T17:01:36.288Z,36.36
2018-06-28T17:04:05.452Z,35.40
2018-06-28T17:06:34.565Z,36.41
2018-06-28T17:09:04.024Z,36.04
2018-06-28T17:11:33.128Z,36.21
2018-06-28T17:14:02.885Z,36.81
2018-06-28T17:16:31.984Z,35.21
2018-06-28T17:19:01.064Z,36.53
2018-06-28T17:21:30.180Z,36.44
2018-06-28T17:23:59.276Z,35.84
2018-06-28T17:26:28.384Z,36.42
2018-06-28T17:28:57.460Z,36.83
2018-06-28T17:31:26.593Z,37.13
2018-06-28T17:33:55.876Z,37.29
2018-06-28T17:36:24.956Z,36.75
2018-06-28T17:38:54.909Z,37.44
2018-06-28T17:41:24.179Z,36.03
2018-06-28T17:43:53.279Z,36.30
2018-06-28T17:46:22.355Z,36.87
2018-06-28T17:48:51.477Z,37.43
2018-06-28T17:51:20.556Z,36.05
2018-06-28T17:53:49.764Z,37.40
2018-06-28T17:56:18.860Z,37.89
2018-06-28T17:58:47.952Z,37.06
2018-06-28T18:01:17.029Z,38.04
2018-06-28T18:03:46.998Z,38.10
2018-06-28T18:06:16.068Z,38.73
2018-06-28T18:08:45.262Z,38.58
2018-06-28T18:11:14.324Z,38.38
2018-06-28T18:13:43.429Z,38.37
2018-06-28T18:16:12.512Z,38.76
2018-06-28T18:18:41.608Z,39.13
2018-06-28T18:21:10.688Z,39.97
2018-06-28T18:23:39.786Z,39.49
2018-06-28T18:26:08.879Z,39.23
2018-06-28T18:28:39.949Z,38.97
2018-06-28T18:31:09.025Z,38.36
2018-06-28T18:33:38.116Z,39.88
2018-06-28T18:36:07.197Z,39.65
2018-06-28T18:38:36.301Z,39.87
2018-06-28T18:41:05.577Z,39.56
2018-06-28T18:43:34.672Z,40.06
2018-06-28T18:46:03.816Z,40.50
2018-06-28T18:48:32.936Z,39.60
2018-06-28T18:51:02.013Z,40.32
2018-06-28T18:53:31.188Z,40.69
2018-06-28T18:56:00.816Z,40.51
2018-06-28T18:58:30.188Z,40.81
2018-06-28T19:01:00.170Z,40.79
2018-06-28T19:03:29.235Z,41.99
2018-06-28T19:05:58.336Z,40.73
2018-06-28T19:08:27.468Z,41.05
2018-06-28T19:10:57.528Z,41.79
2018-06-28T19:13:27.628Z,41.07
2018-06-28T19:16:02.170Z,41.82
2018-06-28T19:18:31.260Z,41.23
2018-06-28T19:21:05.796Z,41.54
2018-06-28T19:23:40.343Z,41.35
2018-06-28T19:26:09.454Z,41.51
2018-06-28T19:28:38.532Z,41.32
2018-06-28T19:31:13.064Z,42.08
2018-06-28T19:33:42.152Z,41.35
2018-06-28T19:36:11.245Z,41.56
2018-06-28T19:38:45.740Z,42.10
2018-06-28T19:41:20.317Z,42.23
2018-06-28T19:43:49.384Z,42.11
2018-06-28T19:46:18.517Z,42.75
2018-06-28T19:48:48.052Z,43.18
2018-06-28T19:51:22.441Z,41.06
2018-06-28T19:53:51.513Z,42.71
2018-06-28T19:56:20.636Z,43.84
2018-06-28T19:58:49.712Z,44.00
2018-06-28T20:01:24.148Z,45.00
2018-06-28T20:03:58.517Z,44.34
2018-06-28T20:06:27.692Z,44.93
2018-06-28T20:08:56.831Z,44.45
2018-06-28T20:11:26.718Z,44.28
2018-06-28T20:14:01.500Z,44.05
2018-06-28T20:16:36.012Z,44.31
2018-06-28T20:19:10.460Z,43.89
2018-06-28T20:21:39.755Z,44.05
2018-06-28T20:24:08.847Z,43.44
2018-06-28T20:26:43.209Z,43.59
2018-06-28T20:29:17.523Z,43.03
2018-06-28T20:31:52.012Z,43.23
2018-06-28T20:34:21.132Z,43.04
2018-06-28T20:36:50.273Z,42.66
2018-06-28T20:39:19.359Z,43.06
2018-06-28T20:41:48.456Z,42.96
2018-06-28T20:44:17.524Z,43.27
2018-06-28T20:46:46.608Z,42.92
2018-06-28T20:49:15.675Z,43.73
2018-06-28T20:51:44.768Z,42.92
2018-06-28T20:54:13.834Z,44.18
2018-06-28T20:56:42.936Z,43.83
2018-06-28T20:59:12.048Z,43.98
2018-06-28T21:01:41.215Z,43.62
2018-06-28T21:04:10.392Z,43.53
2018-06-28T21:06:39.495Z,44.36
2018-06-28T21:09:08.596Z,44.80
2018-06-28T21:11:37.730Z,44.85
2018-06-28T21:14:06.883Z,45.45
2018-06-28T21:16:36.018Z,46.60
2018-06-28T21:19:05.213Z,45.13
2018-06-28T21:21:34.376Z,45.30
2018-06-28T21:24:03.548Z,45.38
2018-06-28T21:26:32.633Z,45.10
2018-06-28T21:29:01.892Z,44.60
2018-06-28T21:31:30.980Z,44.19
2018-06-28T21:34:00.099Z,44.47
2018-06-28T21:36:29.224Z,44.75
2018-06-28T21:38:58.403Z,44.06
2018-06-28T21:41:27.619Z,44.34
2018-06-28T21:43:56.709Z,43.79
2018-06-28T21:46:25.836Z,44.21
2018-06-28T21:48:55.000Z,44.73
2018-06-28T21:51:24.112Z,45.15
2018-06-28T21:53:53.316Z,44.93
2018-06-28T21:56:22.444Z,45.50
2018-06-28T21:58:51.659Z,45.29
2018-06-28T22:01:20.745Z,45.68
2018-06-28T22:03:49.920Z,45.86
2018-06-28T22:06:19.235Z,46.01
2018-06-28T22:08:48.330Z,46.55
2018-06-28T22:11:17.444Z,46.66
2018-06-28T22:13:46.592Z,45.38
2018-06-28T22:16:15.672Z,46.15
2018-06-28T22:18:44.840Z,46.08
2018-06-28T22:21:13.976Z,45.96
2018-06-28T22:23:43.180Z,46.53
2018-06-28T22:26:12.299Z,46.67
2018-06-28T22:28:41.420Z,46.29
2018-06-28T22:31:11.337Z,47.39
2018-06-28T22:33:40.404Z,47.35
2018-06-28T22:36:09.511Z,47.26
2018-06-28T22:38:38.592Z,47.88
2018-06-28T22:41:07.683Z,49.46
2018-06-28T22:43:36.764Z,48.92
2018-06-28T22:46:05.864Z,49.24
2018-06-28T22:48:35.465Z,49.95
2018-06-28T22:51:04.544Z,50.60
2018-06-28T22:53:33.636Z,51.38
2018-06-28T22:56:02.737Z,51.77
2018-06-28T22:58:31.804Z,52.46
2018-06-28T23:01:00.917Z,52.97
2018-06-28T23:03:29.992Z,53.37
2018-06-28T23:05:59.084Z,53.60
2018-06-28T23:08:28.991Z,52.97
2018-06-28T23:10:58.148Z,53.12
2018-06-28T23:13:27.555Z,53.55
2018-06-28T23:15:56.650Z,53.66
2018-06-28T23:18:25.733Z,53.12
2018-06-28T23:20:54.820Z,54.31
2018-06-28T23:23:23.893Z,54.85
2018-06-28T23:25:52.975Z,54.57
2018-06-28T23:28:22.057Z,54.50
2018-06-28T23:30:51.150Z,54.06
2018-06-28T23:33:20.216Z,54.11
2018-06-28T23:35:49.300Z,53.83
2018-06-28T23:38:18.364Z,53.71
2018-06-28T23:40:47.481Z,54.02
2018-06-28T23:43:16.544Z,54.10
2018-06-28T23:45:45.607Z,54.06
2018-06-28T23:48:14.697Z,54.55
2018-06-28T23:50:43.771Z,55.25
2018-06-28T23:53:12.864Z,55.69
2018-06-28T23:55:41.944Z,56.40
2018-06-28T23:58:11.032Z,55.84
